ZUUU METAR and TAF | Updated Today

ZUUU METAR

Chengdu Shuangliu International Airport

Observation time: 29 min. ago

ZUUU 060900Z 23001MPS 2000 BR SCT040 12/08 Q1022 NOSIG

Need help? Read our tutorial on how to read METARs or read the parsed version below.

Chengdu Shuangliu International Airport (ZUUU) METAR

  • Weather conditions on Mon, 06 Dec 2021 09:00:00 +0000 (29 min. ago):
  • Present conditions: Mist
  • Clouds: Scattered at 1219 meters
  • Visibility: 2000 meters
  • Wind: 230 degrees at 1 knots
  • Temperature: 12 celsius
  • Dew point: 8 celsius
  • Pressure: 1022 millibars
  • Remarks: None


Useful to know...

ZUUU TAF

Chengdu Shuangliu International Airport

TAF ZUUU 060304Z 0606/0706 02003MPS 2300 BR SCT040 TX14/0607Z TN09/0623Z BECMG 0610/0611 5000 TEMPO 0622/0704 -RA
Observation time: 6:25 hr. ago
Need help? Read our tutorial on how to read TAFs or read the parsed version below.

Parsed version of TAF for Chengdu Shuangliu International Airport (ZUUU)

  • From 06 December at 06:00 UTC, to day 07 of the month at 06:00 UTC
  • Clouds: Scattered at 1219 meters
  • Visibility: 2300 meters
  • Wind: 20 degrees at 3
  • Other: Mist
  • Expected to arise soon, from 06 December at 10:00 UTC, to day 06 of the month at 11:00 UTC
  • Visibility: 5000 meters
  • Expected to arise temporarily, from 06 December at 22:00 UTC, to day 07 of the month at 04:00 UTC
  • Other: Light rain

Airports near ZUUU